Pacolet, South Carolina
Current Conditions -  °F | °C
As of 7:35 AM on Thursday 29 Jan 2015 (Local Time) from KSPA Reporting Station
Clear Clear  
Wind Chill: -1°   Ceiling: Unl
Heat Index: -1°   Visibility: 10mi
Dew Point: -4°   Wind: 0mph
Humidity: 80%   Direction: NA
Pressure: 30.3"   Gusts: NA
Location:  34.9°N, 81.76°W
Report Text: KSPA 291235Z AUTO 00000KT 10SM CLR M01/M04 A3030 RMK AO2
Loading
Personal Weather Stations






























Interactive Weather Map New forecast layout! Learn more

10-Day Weather Forecast

Advertisements
Track Severe Weather on mobile